Time;durP1;ratioP1;P1;durP2;ratioP2;P2;SDS_P1;SDS_P2;PMS_P1;PMS_P2;Temp;Humidity;BMP_temperature;BMP_pressure;BME280_temperature;BME280_humidity;BME280_pressure;Samples;Min_cycle;Max_cycle;Signal;HPM_P1;HPM_P2
2021/06/14 00:02:29;;;;;;;22.17;17.65;;;14.20;99.90;;;;;;21158619;28;20032;-50
2021/06/14 00:12:31;;;;;;;28.60;21.90;;;14.00;99.90;;;;;;21157971;28;20084;-51
2021/06/14 00:22:33;;;;;;;29.08;21.95;;;14.10;99.90;;;;;;21157303;28;20191;-49
2021/06/14 00:32:35;;;;;;;35.95;26.50;;;13.70;99.90;;;;;;21156773;28;20106;-50
2021/06/14 00:42:36;;;;;;;44.95;31.70;;;13.30;99.90;;;;;;21155722;28;20032;-49
2021/06/14 00:52:39;;;;;;;33.22;24.75;;;13.40;99.90;;;;;;21155577;28;20031;-50
2021/06/14 01:02:43;;;;;;;30.83;23.00;;;13.50;99.90;;;;;;21137415;28;20036;-49
2021/06/14 01:13:08;;;;;;;22.88;16.65;;;13.60;99.90;;;;;;21155164;28;20061;-49
2021/06/14 01:23:41;;;;;;;15.23;10.93;;;13.30;99.90;;;;;;21136561;28;20044;-51
2021/06/14 01:33:47;;;;;;;14.00;10.52;;;13.10;99.90;;;;;;21135935;28;20053;-53
2021/06/14 01:43:50;;;;;;;16.48;11.57;;;13.30;99.90;;;;;;21154438;28;20035;-47
2021/06/14 01:54:06;;;;;;;17.65;13.75;;;13.30;99.90;;;;;;21137441;28;20081;-50
2021/06/14 02:04:14;;;;;;;12.57;9.73;;;12.90;99.90;;;;;;21168119;28;20039;-51
2021/06/14 02:14:31;;;;;;;19.65;14.55;;;12.70;99.90;;;;;;21167393;28;20385;-50
2021/06/14 02:24:34;;;;;;;12.38;8.23;;;12.80;99.90;;;;;;21148428;28;20108;-48
2021/06/14 02:34:38;;;;;;;18.30;14.52;;;12.80;99.90;;;;;;21147388;28;20035;-49
2021/06/14 02:44:41;;;;;;;24.25;17.38;;;12.90;99.90;;;;;;21146952;28;20057;-51
2021/06/14 02:55:06;;;;;;;29.90;21.50;;;12.90;99.90;;;;;;21146339;28;20031;-49
2021/06/14 03:05:10;;;;;;;28.58;20.42;;;13.00;99.90;;;;;;21144806;28;20027;-48
2021/06/14 03:15:13;;;;;;;31.63;22.33;;;13.20;99.90;;;;;;21162300;28;20039;-50
2021/06/14 03:25:16;;;;;;;23.73;17.65;;;13.30;99.90;;;;;;21160615;28;20040;-49
2021/06/14 03:35:21;;;;;;;19.90;14.27;;;13.40;99.90;;;;;;21160988;28;20032;-51
2021/06/14 03:45:23;;;;;;;12.45;9.88;;;13.40;99.90;;;;;;21159983;28;20040;-49
2021/06/14 03:55:25;;;;;;;10.57;8.40;;;13.40;99.90;;;;;;21159317;28;20035;-48
2021/06/14 04:05:27;;;;;;;11.55;8.68;;;13.40;99.90;;;;;;21158927;28;20044;-50
2021/06/14 04:15:48;;;;;;;11.88;7.70;;;13.30;99.90;;;;;;21136649;28;20097;-50
2021/06/14 04:25:51;;;;;;;7.63;6.18;;;13.30;99.90;;;;;;21151058;28;20051;-50
2021/06/14 04:35:53;;;;;;;9.40;7.35;;;13.20;99.90;;;;;;21156408;28;20477;-48
2021/06/14 04:45:55;;;;;;;8.93;6.65;;;13.10;99.90;;;;;;21156018;28;20374;-50
2021/06/14 04:55:57;;;;;;;7.18;5.60;;;12.90;99.90;;;;;;21155564;28;20062;-49
2021/06/14 05:05:58;;;;;;;7.47;5.70;;;12.90;99.90;;;;;;21155216;28;20385;-49
2021/06/14 05:16:00;;;;;;;8.15;5.75;;;12.90;99.90;;;;;;21154925;28;20358;-48
2021/06/14 05:26:02;;;;;;;5.85;5.20;;;13.00;99.90;;;;;;21158547;28;20048;-48
2021/06/14 05:36:05;;;;;;;8.93;6.25;;;13.10;99.90;;;;;;21170355;28;20031;-49
2021/06/14 05:46:06;;;;;;;7.97;5.88;;;13.30;99.90;;;;;;21169707;28;20043;-49
2021/06/14 05:56:08;;;;;;;9.38;6.10;;;13.60;99.90;;;;;;21169671;28;20089;-48
2021/06/14 06:06:10;;;;;;;6.03;5.35;;;14.20;99.90;;;;;;21168714;28;20035;-50
2021/06/14 06:16:12;;;;;;;5.97;4.25;;;15.50;99.90;;;;;;21167626;28;20089;-52
2021/06/14 06:26:14;;;;;;;5.40;3.65;;;20.80;99.90;;;;;;21167416;28;20047;-52
2021/06/14 06:36:16;;;;;;;5.22;4.20;;;25.00;97.20;;;;;;21164549;28;20035;-55
2021/06/14 06:46:18;;;;;;;4.28;3.90;;;27.70;88.00;;;;;;21147281;28;20035;-51
2021/06/14 06:56:20;;;;;;;5.47;4.57;;;28.70;78.20;;;;;;21164245;28;20061;-50
2021/06/14 07:06:22;;;;;;;5.38;4.55;;;28.90;76.70;;;;;;21163368;28;20035;-50
2021/06/14 07:16:24;;;;;;;4.65;4.25;;;28.00;75.70;;;;;;21164532;28;20277;-54
2021/06/14 07:26:27;;;;;;;5.72;5.13;;;26.80;78.50;;;;;;21162931;28;20047;-49
2021/06/14 07:36:31;;;;;;;5.45;4.95;;;25.40;79.30;;;;;;21162587;28;20031;-50
2021/06/14 07:46:34;;;;;;;6.88;6.18;;;23.90;85.80;;;;;;21160994;28;20096;-51
2021/06/14 07:56:43;;;;;;;5.45;4.95;;;23.60;91.00;;;;;;21160363;28;20177;-49
2021/06/14 08:06:45;;;;;;;4.63;4.22;;;24.10;90.20;;;;;;21159722;28;20036;-49
2021/06/14 08:16:47;;;;;;;5.75;4.32;;;24.80;86.30;;;;;;21158444;28;20082;-51
2021/06/14 08:26:48;;;;;;;5.78;3.95;;;25.10;87.40;;;;;;21161065;28;20031;-52
2021/06/14 08:36:50;;;;;;;4.50;4.10;;;26.50;85.20;;;;;;21160529;28;20043;-50
2021/06/14 08:46:55;;;;;;;4.97;4.47;;;27.80;80.70;;;;;;21159713;28;20040;-50
2021/06/14 08:56:57;;;;;;;4.90;4.50;;;27.30;78.30;;;;;;21160324;28;20076;-53
2021/06/14 09:07:00;;;;;;;7.28;5.18;;;26.40;85.20;;;;;;21173240;28;20039;-54
2021/06/14 09:17:11;;;;;;;5.63;5.13;;;25.60;83.60;;;;;;21174003;28;20104;-52
2021/06/14 09:27:13;;;;;;;6.60;6.00;;;26.10;88.00;;;;;;21176867;28;20062;-50
2021/06/14 09:37:17;;;;;;;10.27;5.78;;;27.10;86.10;;;;;;21174705;28;20043;-52
2021/06/14 09:47:20;;;;;;;6.22;5.63;;;26.90;82.70;;;;;;21172312;28;20043;-54
2021/06/14 09:57:30;;;;;;;6.90;5.47;;;25.40;87.60;;;;;;21171732;28;20089;-50
2021/06/14 10:07:32;;;;;;;7.30;6.60;;;24.40;90.00;;;;;;21170146;28;20419;-48
2021/06/14 10:17:39;;;;;;;7.07;6.38;;;23.90;88.10;;;;;;21168949;28;20100;-49
2021/06/14 10:27:42;;;;;;;7.53;6.70;;;23.50;92.00;;;;;;21168228;28;20039;-48
2021/06/14 10:37:47;;;;;;;8.93;7.40;;;24.00;92.50;;;;;;21167345;28;20473;-48
2021/06/14 10:47:50;;;;;;;8.30;7.50;;;24.00;92.00;;;;;;21166817;28;20100;-48
2021/06/14 10:57:52;;;;;;;10.30;7.95;;;24.00;92.80;;;;;;21165518;28;20031;-50
2021/06/14 11:07:54;;;;;;;10.05;7.88;;;24.10;92.30;;;;;;21164360;28;20069;-49
2021/06/14 11:17:56;;;;;;;10.55;7.70;;;24.30;93.80;;;;;;21163682;28;20081;-52
2021/06/14 11:28:04;;;;;;;10.25;7.53;;;25.10;92.90;;;;;;21163691;28;20089;-51
2021/06/14 11:38:18;;;;;;;9.30;8.38;;;25.10;92.60;;;;;;21164553;28;20085;-50
2021/06/14 11:48:21;;;;;;;11.10;9.48;;;25.50;92.90;;;;;;21162405;28;20039;-51
2021/06/14 11:58:31;;;;;;;12.70;9.85;;;25.60;92.80;;;;;;21160517;28;20036;-49
2021/06/14 12:08:33;;;;;;;11.00;9.57;;;26.00;92.90;;;;;;21160591;28;20039;-51
2021/06/14 12:18:35;;;;;;;11.13;10.02;;;26.40;92.50;;;;;;21142870;28;20052;-50
2021/06/14 12:28:39;;;;;;;13.85;11.25;;;26.00;93.20;;;;;;21158769;28;20035;-50
2021/06/14 12:38:52;;;;;;;12.43;11.18;;;26.20;92.80;;;;;;21157557;28;20057;-51
2021/06/14 12:48:55;;;;;;;13.00;11.55;;;27.10;91.60;;;;;;21157881;28;20440;-49
2021/06/14 12:58:57;;;;;;;12.88;11.05;;;26.90;91.30;;;;;;21159665;28;20054;-49
2021/06/14 13:09:01;;;;;;;11.80;10.68;;;26.30;92.30;;;;;;21157661;28;20036;-49
2021/06/14 13:19:03;;;;;;;11.65;10.50;;;25.80;92.10;;;;;;21153665;28;20400;-49
2021/06/14 13:29:25;;;;;;;14.18;12.77;;;25.00;92.90;;;;;;21137987;28;20035;-49
2021/06/14 13:39:33;;;;;;;12.23;10.95;;;25.10;93.30;;;;;;21154115;28;20032;-50
2021/06/14 13:49:38;;;;;;;11.23;10.15;;;26.60;91.20;;;;;;21161601;28;20036;-51
2021/06/14 13:59:42;;;;;;;11.43;10.25;;;28.20;88.40;;;;;;21170078;28;20459;-49
2021/06/14 14:09:44;;;;;;;11.00;9.95;;;27.60;88.20;;;;;;21153728;28;20036;-48
2021/06/14 14:19:52;;;;;;;11.35;10.15;;;26.70;90.90;;;;;;21168566;28;20442;-50
2021/06/14 14:29:57;;;;;;;12.35;11.15;;;26.60;91.10;;;;;;21170638;28;20039;-49
2021/06/14 14:40:05;;;;;;;11.43;10.32;;;27.00;88.50;;;;;;21168693;28;20043;-50
2021/06/14 14:50:21;;;;;;;9.75;8.75;;;26.50;89.50;;;;;;21151622;28;20036;-50
2021/06/14 15:00:27;;;;;;;11.20;10.02;;;26.70;91.30;;;;;;21166873;28;20104;-51
2021/06/14 15:10:29;;;;;;;10.10;8.38;;;27.50;89.90;;;;;;21165127;28;20039;-48
2021/06/14 15:20:31;;;;;;;11.10;8.68;;;27.50;90.00;;;;;;21163931;28;20039;-48
2021/06/14 15:30:35;;;;;;;9.95;8.98;;;27.30;89.90;;;;;;21162769;28;20039;-50
2021/06/14 15:40:39;;;;;;;9.93;8.90;;;26.50;90.50;;;;;;21161681;28;20027;-49
2021/06/14 15:50:43;;;;;;;8.65;7.72;;;27.80;86.80;;;;;;21161030;28;20031;-48
2021/06/14 16:00:45;;;;;;;9.57;8.65;;;27.90;86.70;;;;;;21160292;28;20057;-49
2021/06/14 16:10:47;;;;;;;13.18;10.70;;;26.80;85.10;;;;;;21160663;28;20089;-51
2021/06/14 16:20:49;;;;;;;15.50;11.75;;;23.80;91.60;;;;;;21158132;28;20056;-51
2021/06/14 16:30:51;;;;;;;14.35;12.57;;;22.60;94.20;;;;;;21157636;28;20420;-48
2021/06/14 16:40:53;;;;;;;16.50;13.05;;;21.90;95.40;;;;;;21156478;28;20392;-49
2021/06/14 16:50:55;;;;;;;13.18;11.30;;;21.30;96.90;;;;;;21156359;28;20044;-48
2021/06/14 17:00:57;;;;;;;19.40;13.68;;;20.70;98.80;;;;;;21156411;28;20040;-49
2021/06/14 17:10:59;;;;;;;16.33;13.65;;;20.10;99.90;;;;;;21155703;28;20043;-49
2021/06/14 17:21:01;;;;;;;19.45;15.07;;;19.70;99.90;;;;;;21157776;28;20040;-49
2021/06/14 17:31:07;;;;;;;19.73;16.05;;;19.40;99.90;;;;;;21172242;28;20061;-50
2021/06/14 17:41:10;;;;;;;21.08;16.90;;;18.70;99.90;;;;;;21170751;28;20077;-49
2021/06/14 17:51:12;;;;;;;20.35;16.15;;;18.40;99.90;;;;;;21170295;28;20040;-50
2021/06/14 18:01:15;;;;;;;23.98;18.15;;;18.20;99.90;;;;;;21169900;28;20043;-52
2021/06/14 18:11:17;;;;;;;22.13;17.20;;;18.20;99.90;;;;;;21169303;28;20057;-48
2021/06/14 18:21:20;;;;;;;20.85;16.40;;;18.20;99.90;;;;;;21168528;28;20101;-49
2021/06/14 18:31:25;;;;;;;20.10;17.52;;;18.00;99.90;;;;;;21166462;28;20095;-50
2021/06/14 18:41:27;;;;;;;25.75;17.15;;;17.90;99.90;;;;;;21167718;28;20039;-48
2021/06/14 18:51:29;;;;;;;19.23;17.05;;;17.70;99.90;;;;;;21165953;28;20062;-49
2021/06/14 19:01:35;;;;;;;25.83;18.92;;;17.50;99.90;;;;;;21165466;28;20088;-49
2021/06/14 19:11:38;;;;;;;25.17;18.30;;;17.30;99.90;;;;;;21163887;28;20469;-49
2021/06/14 19:21:40;;;;;;;20.58;17.27;;;17.00;99.90;;;;;;21163293;28;20043;-52
2021/06/14 19:31:42;;;;;;;21.38;17.08;;;16.90;99.90;;;;;;21162758;28;20039;-49
2021/06/14 19:41:47;;;;;;;19.60;15.65;;;16.90;99.90;;;;;;21162065;28;20039;-49
2021/06/14 19:51:49;;;;;;;22.40;17.63;;;16.80;99.90;;;;;;21160670;28;20469;-50
2021/06/14 20:01:51;;;;;;;18.70;14.18;;;16.70;99.90;;;;;;21160471;28;20031;-49
2021/06/14 20:11:53;;;;;;;20.05;14.32;;;16.60;99.90;;;;;;21159746;28;20485;-49
2021/06/14 20:21:56;;;;;;;17.15;15.27;;;16.50;99.90;;;;;;21158767;28;20055;-52
2021/06/14 20:31:58;;;;;;;17.63;13.00;;;16.40;99.90;;;;;;21159443;28;20341;-51
2021/06/14 20:42:02;;;;;;;17.85;13.27;;;16.30;99.90;;;;;;21157942;28;20085;-49
2021/06/14 20:52:07;;;;;;;22.45;17.08;;;16.10;99.90;;;;;;21157159;28;20053;-48
2021/06/14 21:02:09;;;;;;;28.95;21.88;;;15.90;99.90;;;;;;21155829;28;20043;-48
2021/06/14 21:12:11;;;;;;;35.65;27.48;;;15.70;99.90;;;;;;21156301;28;20086;-50
2021/06/14 21:22:13;;;;;;;33.78;26.35;;;15.60;99.90;;;;;;21155635;28;20390;-48
2021/06/14 21:32:14;;;;;;;20.60;15.43;;;15.50;99.90;;;;;;21155600;28;20385;-51
2021/06/14 21:42:17;;;;;;;24.70;14.55;;;15.60;99.90;;;;;;21156262;28;20101;-49
2021/06/14 21:52:18;;;;;;;17.05;12.95;;;15.40;99.90;;;;;;21089221;28;20386;-50
2021/06/14 22:02:20;;;;;;;24.55;14.50;;;15.30;99.90;;;;;;21070077;28;20032;-49
2021/06/14 22:12:22;;;;;;;23.48;15.77;;;15.20;99.90;;;;;;21080515;28;20385;-48
2021/06/14 22:22:24;;;;;;;28.67;19.05;;;15.20;99.90;;;;;;21083964;28;20109;-52
2021/06/14 22:32:26;;;;;;;26.10;19.40;;;15.20;99.90;;;;;;21083241;28;20040;-48
2021/06/14 22:42:28;;;;;;;27.55;19.58;;;15.20;99.90;;;;;;21166337;28;20039;-49
2021/06/14 22:52:30;;;;;;;33.15;26.30;;;15.20;99.90;;;;;;21165939;28;20050;-49
2021/06/14 23:02:31;;;;;;;35.00;25.23;;;15.20;99.90;;;;;;21165041;28;20036;-48
2021/06/14 23:12:33;;;;;;;33.17;23.85;;;15.20;99.90;;;;;;21164067;28;20033;-49
2021/06/14 23:22:35;;;;;;;27.88;22.30;;;15.20;99.90;;;;;;21162594;28;20051;-49
2021/06/14 23:32:37;;;;;;;31.48;24.63;;;15.30;99.90;;;;;;21162924;28;20040;-48
2021/06/14 23:42:39;;;;;;;33.08;24.23;;;15.30;99.90;;;;;;21161557;28;20396;-48
2021/06/14 23:52:47;;;;;;;32.53;24.67;;;15.30;99.90;;;;;;21161164;28;20061;-48
